createdAt,value
2018-01-13T00:01:18.913Z,43.50
2018-01-13T00:03:20.692Z,43.93
2018-01-13T00:05:21.701Z,44.30
2018-01-13T00:07:23.341Z,43.87
2018-01-13T00:09:24.479Z,43.60
2018-01-13T00:11:25.640Z,44.07
2018-01-13T00:13:26.675Z,44.33
2018-01-13T00:15:29.085Z,46.20
2018-01-13T00:17:30.045Z,46.33
2018-01-13T00:19:31.018Z,45.80
2018-01-13T00:21:32.176Z,45.40
2018-01-13T00:23:33.192Z,48.53
2018-01-13T00:25:39.157Z,46.60
2018-01-13T00:27:58.790Z,44.40
2018-01-13T00:30:00.118Z,43.10
2018-01-13T00:32:01.390Z,46.13
2018-01-13T00:34:06.333Z,48.37
2018-01-13T00:36:09.633Z,47.50
2018-01-13T00:40:17.283Z,47.97
2018-01-13T00:42:29.484Z,46.20
2018-01-13T00:47:02.336Z,46.37
2018-01-13T00:49:34.393Z,45.10
2018-01-13T00:54:04.717Z,43.20
2018-01-13T00:56:06.955Z,45.00
2018-01-13T00:58:33.729Z,46.30
2018-01-13T01:00:35.920Z,45.40
2018-01-13T01:05:14.539Z,43.30
2018-01-13T01:19:50.497Z,35.30
2018-01-13T01:21:52.534Z,40.80
2018-01-13T01:23:53.563Z,40.10
2018-01-13T01:25:58.054Z,44.17
2018-01-13T01:27:59.708Z,40.13
2018-01-13T01:30:00.755Z,44.07
2018-01-13T01:32:01.796Z,43.57
2018-01-13T01:34:02.782Z,45.00
2018-01-13T01:36:05.499Z,41.90
2018-01-13T01:38:06.486Z,35.60
2018-01-13T01:40:07.498Z,43.80
2018-01-13T01:42:10.403Z,45.00
2018-01-13T01:44:14.509Z,47.43
2018-01-13T01:46:15.485Z,43.63
2018-01-13T01:48:26.192Z,42.77
2018-01-13T01:50:27.284Z,41.40
2018-01-13T01:52:28.235Z,39.80
2018-01-13T01:54:29.261Z,45.23
2018-01-13T01:56:32.262Z,44.63
2018-01-13T01:58:34.803Z,45.43
2018-01-13T02:00:35.893Z,43.80
2018-01-13T02:02:36.847Z,43.27
2018-01-13T02:04:37.811Z,44.07
2018-01-13T02:06:38.811Z,44.80
2018-01-13T02:08:39.794Z,39.97
2018-01-13T02:10:40.790Z,45.60
2018-01-13T02:12:43.436Z,47.23
2018-01-13T02:14:49.533Z,40.27
2018-01-13T02:16:53.051Z,44.27
2018-01-13T02:18:54.104Z,44.70
2018-01-13T02:20:55.158Z,40.80
2018-01-13T02:22:56.182Z,42.23
2018-01-13T02:24:57.180Z,44.47
2018-01-13T02:26:58.121Z,43.20
2018-01-13T02:28:59.122Z,43.17
2018-01-13T02:31:00.158Z,45.40
2018-01-13T02:33:01.128Z,44.50
2018-01-13T02:35:02.444Z,42.93
2018-01-13T02:37:03.517Z,41.90
2018-01-13T02:39:04.506Z,43.33
2018-01-13T02:41:05.513Z,38.37
2018-01-13T02:43:06.486Z,44.10
2018-01-13T02:45:07.545Z,40.80
2018-01-13T02:47:08.676Z,39.03
2018-01-13T02:49:09.640Z,41.87
2018-01-13T02:51:10.600Z,40.13
2018-01-13T02:53:11.560Z,42.40
2018-01-13T02:55:12.715Z,38.53
2018-01-13T02:57:14.871Z,40.83
2018-01-13T02:59:15.842Z,44.30
2018-01-13T03:01:16.833Z,41.37
2018-01-13T03:03:17.847Z,39.87
2018-01-13T03:05:19.066Z,40.77
2018-01-13T03:07:20.068Z,40.80
2018-01-13T03:09:21.080Z,39.47
2018-01-13T03:11:22.036Z,42.07
2018-01-13T03:13:23.024Z,36.87
2018-01-13T03:15:24.101Z,43.10
2018-01-13T03:17:25.083Z,38.03
2018-01-13T03:19:26.170Z,40.80
2018-01-13T03:21:27.329Z,42.30
2018-01-13T03:23:28.443Z,36.10
2018-01-13T03:25:29.495Z,41.73
2018-01-13T03:27:30.499Z,40.80
2018-01-13T03:29:31.586Z,43.40
2018-01-13T03:31:32.570Z,41.30
2018-01-13T03:33:33.527Z,42.20
2018-01-13T03:35:36.439Z,38.67
2018-01-13T03:37:37.497Z,40.17
2018-01-13T03:39:38.669Z,39.77
2018-01-13T03:41:40.441Z,41.10
2018-01-13T03:43:41.491Z,43.13
2018-01-13T03:45:42.578Z,39.20
2018-01-13T03:47:44.129Z,43.27
2018-01-13T03:49:45.111Z,42.80
2018-01-13T03:51:47.123Z,33.63
2018-01-13T03:53:49.562Z,34.17
2018-01-13T03:55:50.652Z,41.27
2018-01-13T03:57:51.622Z,41.67
2018-01-13T03:59:52.662Z,39.50
2018-01-13T04:01:53.667Z,38.60
2018-01-13T04:03:54.679Z,40.80
2018-01-13T04:05:55.642Z,36.80
2018-01-13T04:07:57.346Z,37.83
2018-01-13T04:09:58.799Z,39.00
2018-01-13T04:12:00.380Z,39.80
2018-01-13T04:14:01.371Z,29.60
2018-01-13T04:16:02.322Z,36.13
2018-01-13T04:18:03.300Z,38.10
2018-01-13T04:20:04.449Z,37.53
2018-01-13T04:22:05.414Z,37.77
2018-01-13T04:24:06.380Z,35.93
2018-01-13T04:26:07.342Z,37.47
2018-01-13T04:28:08.712Z,36.83
2018-01-13T04:30:11.636Z,36.97
2018-01-13T04:32:12.733Z,35.03
2018-01-13T04:34:13.803Z,37.97
2018-01-13T04:36:14.836Z,29.50
2018-01-13T04:38:15.882Z,35.57
2018-01-13T04:40:16.891Z,35.17
2018-01-13T04:42:17.861Z,38.40
2018-01-13T04:44:18.936Z,38.30
2018-01-13T04:46:19.994Z,33.77
2018-01-13T04:48:20.974Z,37.80
2018-01-13T04:50:21.988Z,38.77
2018-01-13T04:52:23.038Z,37.60
2018-01-13T04:54:23.993Z,36.90
2018-01-13T04:56:27.928Z,35.83
2018-01-13T04:58:29.169Z,39.50
2018-01-13T05:00:30.111Z,37.40
2018-01-13T05:02:31.087Z,39.83
2018-01-13T05:04:32.117Z,37.73
2018-01-13T05:06:33.085Z,31.47
2018-01-13T05:08:34.295Z,39.90
2018-01-13T05:10:35.334Z,39.00
2018-01-13T05:12:36.400Z,39.40
2018-01-13T05:14:38.111Z,37.00
2018-01-13T05:16:39.103Z,38.63
2018-01-13T05:18:40.090Z,37.90
2018-01-13T05:20:43.194Z,39.73
2018-01-13T05:22:44.979Z,40.53
2018-01-13T05:24:45.960Z,36.03
2018-01-13T05:26:46.998Z,37.43
2018-01-13T05:28:48.106Z,38.77
2018-01-13T05:30:58.871Z,37.17
2018-01-13T05:33:07.873Z,40.00
2018-01-13T05:35:09.032Z,40.07
2018-01-13T05:37:10.374Z,40.70
2018-01-13T05:39:11.392Z,37.43
2018-01-13T05:41:13.065Z,40.30
2018-01-13T05:43:14.099Z,30.90
2018-01-13T05:45:17.012Z,39.73
2018-01-13T05:47:18.026Z,39.87
2018-01-13T05:49:19.203Z,42.07
2018-01-13T05:51:20.661Z,35.73
2018-01-13T05:53:21.644Z,39.70
2018-01-13T05:55:22.714Z,33.67
2018-01-13T05:57:24.429Z,37.70
2018-01-13T05:59:25.527Z,36.60
2018-01-13T06:01:29.228Z,38.90
2018-01-13T06:03:30.367Z,39.77
2018-01-13T06:05:33.637Z,40.67
2018-01-13T06:07:34.934Z,39.00
2018-01-13T06:09:35.984Z,35.37
2018-01-13T06:11:36.939Z,39.47
2018-01-13T06:13:37.893Z,38.80
2018-01-13T06:15:38.898Z,36.07
2018-01-13T06:21:20.329Z,34.90
2018-01-13T06:23:21.322Z,37.70
2018-01-13T06:25:22.271Z,36.80
2018-01-13T06:27:25.974Z,39.17
2018-01-13T06:29:27.777Z,36.67
2018-01-13T06:31:31.435Z,39.53
2018-01-13T06:33:35.488Z,34.90
2018-01-13T06:35:36.604Z,39.00
2018-01-13T06:39:45.252Z,37.40
2018-01-13T06:41:46.242Z,40.80
2018-01-13T06:43:48.095Z,33.77
2018-01-13T06:45:50.595Z,36.57
2018-01-13T06:47:52.886Z,39.17
2018-01-13T06:49:53.940Z,40.40
2018-01-13T06:51:54.907Z,33.50
2018-01-13T06:53:56.347Z,38.30
2018-01-13T06:55:58.045Z,38.67
2018-01-13T06:57:59.097Z,40.53
2018-01-13T07:00:00.938Z,39.10
2018-01-13T07:02:01.911Z,39.10
2018-01-13T07:04:03.155Z,42.00
2018-01-13T07:06:04.125Z,36.90
2018-01-13T07:08:05.203Z,37.40
2018-01-13T07:10:06.195Z,31.23
2018-01-13T07:12:07.172Z,36.00
2018-01-13T07:14:09.055Z,35.00
2018-01-13T07:16:11.012Z,36.30
2018-01-13T07:18:12.217Z,34.80
2018-01-13T07:20:14.167Z,32.80
2018-01-13T07:22:20.643Z,32.67
2018-01-13T07:24:24.349Z,33.33
2018-01-13T07:26:25.414Z,38.40
2018-01-13T07:28:26.369Z,34.93
2018-01-13T07:30:27.351Z,33.20
2018-01-13T07:32:28.531Z,34.93
2018-01-13T07:34:30.343Z,36.07
2018-01-13T07:36:31.322Z,36.97
2018-01-13T07:38:32.278Z,37.90
2018-01-13T07:40:35.945Z,36.60
2018-01-13T07:42:42.276Z,36.23
2018-01-13T07:44:43.380Z,35.77
2018-01-13T07:46:44.931Z,36.03
2018-01-13T07:48:45.898Z,34.20
2018-01-13T07:50:48.014Z,34.93
2018-01-13T07:52:49.130Z,35.83
2018-01-13T07:54:50.598Z,35.37
2018-01-13T07:56:51.645Z,35.00
2018-01-13T07:58:53.342Z,30.13
2018-01-13T08:00:54.848Z,33.60
2018-01-13T08:02:55.807Z,30.03
2018-01-13T08:04:56.771Z,35.50
2018-01-13T08:06:57.792Z,34.27
2018-01-13T08:08:58.763Z,35.13
2018-01-13T08:11:00.621Z,36.10
2018-01-13T08:13:01.799Z,29.20
2018-01-13T08:15:02.791Z,32.93
2018-01-13T08:17:06.093Z,31.03
2018-01-13T08:19:07.298Z,31.43
2018-01-13T08:21:08.362Z,33.17
2018-01-13T08:23:09.364Z,33.63
2018-01-13T08:25:10.322Z,35.33
2018-01-13T08:27:11.436Z,31.87
2018-01-13T08:29:12.520Z,35.53
2018-01-13T08:31:15.255Z,33.50
2018-01-13T08:33:16.278Z,34.27
2018-01-13T08:35:17.238Z,28.97
2018-01-13T08:39:44.109Z,33.13
2018-01-13T08:41:45.770Z,35.90
2018-01-13T08:43:46.810Z,36.80
2018-01-13T08:45:47.750Z,32.10
2018-01-13T08:47:48.776Z,36.93
2018-01-13T08:49:51.013Z,38.50
2018-01-13T08:51:52.009Z,37.27
2018-01-13T08:53:53.133Z,39.27
2018-01-13T08:55:58.586Z,33.67
2018-01-13T08:57:59.774Z,35.47
2018-01-13T09:00:01.377Z,35.87
2018-01-13T09:02:05.476Z,36.97
2018-01-13T09:04:11.520Z,33.50
2018-01-13T09:08:41.948Z,31.00
2018-01-13T09:13:28.619Z,32.27
2018-01-13T09:15:29.861Z,32.97
2018-01-13T09:17:31.359Z,27.23
2018-01-13T09:21:43.716Z,28.13
2018-01-13T09:23:45.612Z,37.90
2018-01-13T09:25:47.403Z,34.53
2018-01-13T09:27:48.471Z,35.83
2018-01-13T09:29:49.819Z,33.10
2018-01-13T09:31:54.430Z,29.70
2018-01-13T09:33:55.782Z,32.10
2018-01-13T09:38:49.136Z,35.50
2018-01-13T09:40:58.424Z,32.47
2018-01-13T09:45:37.684Z,31.87
2018-01-13T09:47:39.017Z,34.60
2018-01-13T09:49:40.158Z,34.37
2018-01-13T09:51:41.567Z,37.00
2018-01-13T09:53:43.038Z,36.43
2018-01-13T09:55:44.234Z,31.73
2018-01-13T09:57:45.575Z,27.97
2018-01-13T09:59:47.040Z,34.00
2018-01-13T10:01:49.537Z,32.47
2018-01-13T10:03:50.972Z,35.60
2018-01-13T10:05:52.839Z,36.53
2018-01-13T10:07:55.411Z,35.37
2018-01-13T10:09:58.609Z,36.53
2018-01-13T10:12:00.108Z,38.77
2018-01-13T10:14:01.598Z,37.47
2018-01-13T10:16:17.434Z,37.10
2018-01-13T10:18:21.110Z,36.57
2018-01-13T10:20:23.667Z,38.13
2018-01-13T10:22:37.962Z,39.07
2018-01-13T10:24:39.025Z,39.57
2018-01-13T10:26:40.238Z,37.80
2018-01-13T10:28:41.341Z,38.10
2018-01-13T10:30:46.616Z,36.30
2018-01-13T10:32:48.525Z,37.67
2018-01-13T10:35:00.010Z,39.10
2018-01-13T10:37:02.768Z,37.00
2018-01-13T10:39:03.926Z,39.90
2018-01-13T10:41:05.023Z,41.53
2018-01-13T10:43:06.795Z,37.87
2018-01-13T10:45:08.503Z,34.57
2018-01-13T10:47:09.940Z,38.23
2018-01-13T10:49:11.114Z,40.07
2018-01-13T10:51:12.427Z,41.23
2018-01-13T10:53:14.421Z,39.50
2018-01-13T10:55:15.578Z,36.00
2018-01-13T10:57:16.695Z,40.20
2018-01-13T10:59:17.942Z,39.40
2018-01-13T11:01:20.003Z,41.53
2018-01-13T11:03:21.144Z,40.60
2018-01-13T11:05:22.572Z,39.67
2018-01-13T11:07:23.597Z,39.03
2018-01-13T11:09:24.708Z,40.60
2018-01-13T11:11:25.740Z,37.20
2018-01-13T11:15:58.031Z,41.43
2018-01-13T11:17:59.351Z,41.17
2018-01-13T11:20:00.544Z,40.30
2018-01-13T11:22:02.302Z,34.90
2018-01-13T11:24:03.465Z,37.67
2018-01-13T11:26:04.912Z,40.73
2018-01-13T11:28:07.515Z,37.50
2018-01-13T11:30:15.078Z,39.00
2018-01-13T11:32:16.129Z,42.27
2018-01-13T11:34:17.475Z,41.17
2018-01-13T11:36:32.260Z,41.30
2018-01-13T11:41:11.012Z,40.17
2018-01-13T12:06:16.816Z,47.80
2018-01-13T12:18:17.323Z,43.77
2018-01-13T12:22:31.485Z,44.00
2018-01-13T13:02:48.767Z,43.40
2018-01-13T13:07:26.344Z,51.07
2018-01-13T13:09:30.045Z,50.87
2018-01-13T13:11:34.604Z,51.87
2018-01-13T13:13:37.873Z,52.13
2018-01-13T13:15:39.118Z,53.13
2018-01-13T13:19:50.550Z,50.97
2018-01-13T13:21:51.596Z,51.17
2018-01-13T13:23:59.188Z,49.00
2018-01-13T13:26:00.310Z,51.67
2018-01-13T13:28:02.092Z,56.07
2018-01-13T13:30:03.207Z,45.87
2018-01-13T13:32:04.297Z,45.57
2018-01-13T13:34:05.468Z,39.07
2018-01-13T13:36:06.459Z,50.90
2018-01-13T13:38:08.044Z,52.57
2018-01-13T13:40:09.188Z,49.70
2018-01-13T13:42:10.370Z,51.50
2018-01-13T13:44:11.486Z,55.60
2018-01-13T13:46:14.232Z,47.20
2018-01-13T13:48:15.304Z,42.47
2018-01-13T13:50:19.512Z,50.43
2018-01-13T13:52:20.920Z,50.97
2018-01-13T13:54:22.037Z,46.40
2018-01-13T13:56:26.464Z,48.17
2018-01-13T13:58:29.611Z,49.80
2018-01-13T14:00:31.931Z,48.70
2018-01-13T14:02:33.061Z,47.80
2018-01-13T14:04:34.341Z,48.10
2018-01-13T14:06:35.498Z,47.17
2018-01-13T14:08:36.591Z,47.10
2018-01-13T14:13:16.926Z,44.57
2018-01-13T14:15:18.996Z,46.03
2018-01-13T14:17:20.165Z,46.33
2018-01-13T14:19:21.284Z,39.73
2018-01-13T14:21:23.450Z,42.03
2018-01-13T14:26:07.102Z,43.30
2018-01-13T14:28:09.829Z,40.57
2018-01-13T14:32:49.211Z,43.97
2018-01-13T14:34:50.308Z,45.07
2018-01-13T14:36:52.288Z,45.33
2018-01-13T14:38:53.675Z,44.67
2018-01-13T14:43:09.480Z,39.63
2018-01-13T14:45:10.944Z,44.37
2018-01-13T14:47:12.164Z,42.07
2018-01-13T14:49:13.422Z,40.03
2018-01-13T14:51:14.703Z,44.40
2018-01-13T14:53:15.781Z,43.60
2018-01-13T14:55:16.785Z,40.33
2018-01-13T14:57:17.815Z,43.40
2018-01-13T14:59:19.188Z,41.20
2018-01-13T15:01:21.438Z,44.03
2018-01-13T15:03:29.501Z,35.37
2018-01-13T15:05:32.058Z,42.87
2018-01-13T15:07:40.755Z,43.77
2018-01-13T15:14:34.144Z,44.17
2018-01-13T15:16:35.224Z,47.53
2018-01-13T15:23:30.434Z,43.43
2018-01-13T15:25:31.824Z,45.93
2018-01-13T15:27:32.939Z,47.17
2018-01-13T15:29:34.577Z,45.70
2018-01-13T15:31:35.849Z,48.10
2018-01-13T15:33:37.400Z,48.10
2018-01-13T15:35:38.457Z,47.90
2018-01-13T15:37:39.537Z,51.87
2018-01-13T15:39:43.606Z,52.67
2018-01-13T15:41:44.954Z,52.63
2018-01-13T15:46:22.433Z,50.53
2018-01-13T15:48:24.109Z,47.40
2018-01-13T15:53:07.542Z,46.40
2018-01-13T15:58:18.781Z,41.77
2018-01-13T16:07:49.803Z,37.60
2018-01-13T16:22:21.970Z,31.93
2018-01-13T16:26:56.964Z,31.13
2018-01-13T16:29:14.292Z,27.80
2018-01-13T16:36:21.986Z,26.60
2018-01-13T16:41:04.955Z,27.23
2018-01-13T16:43:14.084Z,26.60
2018-01-13T16:50:13.889Z,26.37
2018-01-13T17:05:00.544Z,26.33
2018-01-13T17:07:01.701Z,26.93
2018-01-13T17:09:02.820Z,28.53
2018-01-13T17:11:03.979Z,29.80
2018-01-13T17:13:05.723Z,25.67
2018-01-13T17:15:06.769Z,27.80
2018-01-13T17:17:08.016Z,22.10
2018-01-13T17:19:09.104Z,26.70
2018-01-13T17:21:10.270Z,31.10
2018-01-13T17:23:11.332Z,27.37
2018-01-13T17:25:12.466Z,28.47
2018-01-13T17:27:13.716Z,26.40
2018-01-13T17:29:14.808Z,29.27
2018-01-13T17:31:15.808Z,29.27
2018-01-13T17:33:16.815Z,27.97
2018-01-13T17:35:17.810Z,28.30
2018-01-13T17:37:18.818Z,28.37
2018-01-13T17:39:20.915Z,24.80
2018-01-13T17:41:22.098Z,15.97
2018-01-13T17:43:23.216Z,28.03
2018-01-13T17:45:28.843Z,24.80
2018-01-13T17:47:29.986Z,27.73
2018-01-13T17:49:31.179Z,29.67
2018-01-13T17:51:32.583Z,26.77
2018-01-13T17:53:33.662Z,23.20
2018-01-13T17:55:34.796Z,28.27
2018-01-13T17:57:35.975Z,27.67
2018-01-13T17:59:37.324Z,27.60
2018-01-13T18:01:41.519Z,27.30
2018-01-13T18:03:42.820Z,28.47
2018-01-13T18:05:44.802Z,27.80
2018-01-13T18:07:45.819Z,27.97
2018-01-13T18:09:48.706Z,26.23
2018-01-13T18:11:50.342Z,26.83
2018-01-13T18:13:53.347Z,25.17
2018-01-13T18:15:54.469Z,26.80
2018-01-13T18:17:55.497Z,24.30
2018-01-13T18:19:56.875Z,24.70
2018-01-13T18:21:57.945Z,23.67
2018-01-13T18:23:59.138Z,24.83
2018-01-13T18:26:00.250Z,22.93
2018-01-13T18:28:01.350Z,24.10
2018-01-13T18:30:02.442Z,25.77
2018-01-13T18:32:03.704Z,24.90
2018-01-13T18:34:06.038Z,23.33
2018-01-13T18:36:07.224Z,24.47
2018-01-13T18:38:08.420Z,24.80
2018-01-13T18:40:12.774Z,23.90
2018-01-13T18:42:13.933Z,23.30
2018-01-13T18:44:16.664Z,23.57
2018-01-13T18:46:19.209Z,24.67
2018-01-13T18:48:21.211Z,23.70
2018-01-13T18:50:30.530Z,22.60
2018-01-13T18:52:31.622Z,24.50
2018-01-13T18:54:33.316Z,22.23
2018-01-13T18:56:34.446Z,23.13
2018-01-13T18:58:36.152Z,23.20
2018-01-13T19:00:37.470Z,20.70
2018-01-13T19:02:43.475Z,24.03
2018-01-13T19:04:45.738Z,23.87
2018-01-13T19:06:52.690Z,24.37
2018-01-13T19:08:53.960Z,15.47
2018-01-13T19:10:56.119Z,23.33
2018-01-13T19:12:57.124Z,22.27
2018-01-13T19:14:58.375Z,22.40
2018-01-13T19:17:01.443Z,24.70
2018-01-13T19:19:02.469Z,23.23
2018-01-13T19:21:04.278Z,21.90
2018-01-13T19:23:05.263Z,24.30
2018-01-13T19:25:06.938Z,23.40
2018-01-13T19:27:10.995Z,23.17
2018-01-13T19:29:13.242Z,22.30
2018-01-13T19:31:15.304Z,23.50
2018-01-13T19:33:16.523Z,23.53
2018-01-13T19:35:19.621Z,23.00
2018-01-13T19:37:20.738Z,22.27
2018-01-13T19:39:21.789Z,23.80
2018-01-13T19:41:22.910Z,23.17
2018-01-13T19:43:23.906Z,22.47
2018-01-13T19:45:24.995Z,23.80
2018-01-13T19:47:26.036Z,15.30
2018-01-13T19:49:27.138Z,21.60
2018-01-13T19:51:28.158Z,22.60
2018-01-13T19:53:29.214Z,24.27
2018-01-13T19:55:30.343Z,23.20
2018-01-13T19:57:31.333Z,22.47
2018-01-13T19:59:33.593Z,22.43
2018-01-13T20:01:35.500Z,22.90
2018-01-13T20:03:36.599Z,22.13
2018-01-13T20:05:39.244Z,22.63
2018-01-13T20:07:40.354Z,22.27
2018-01-13T20:09:41.432Z,21.60
2018-01-13T20:11:42.424Z,21.40
2018-01-13T20:13:43.711Z,21.30
2018-01-13T20:15:44.752Z,21.87
2018-01-13T20:17:45.923Z,22.10
2018-01-13T20:19:47.151Z,21.33
2018-01-13T20:21:48.172Z,20.63
2018-01-13T20:23:49.176Z,21.00
2018-01-13T20:25:50.308Z,17.40
2018-01-13T20:27:51.343Z,21.83
2018-01-13T20:29:52.437Z,23.00
2018-01-13T20:31:53.524Z,23.10
2018-01-13T20:33:54.543Z,18.00
2018-01-13T20:35:56.403Z,23.33
2018-01-13T20:37:57.558Z,22.53
2018-01-13T20:39:58.792Z,21.37
2018-01-13T20:41:59.941Z,22.33
2018-01-13T20:44:00.991Z,16.10
2018-01-13T20:46:02.167Z,20.40
2018-01-13T20:48:04.220Z,15.37
2018-01-13T20:50:05.353Z,20.97
2018-01-13T20:52:06.425Z,19.00
2018-01-13T20:54:10.387Z,20.70
2018-01-13T20:56:11.425Z,15.17
2018-01-13T20:58:12.569Z,17.77
2018-01-13T21:00:13.880Z,21.17
2018-01-13T21:02:14.975Z,20.57
2018-01-13T21:04:17.213Z,20.33
2018-01-13T21:06:21.471Z,20.57
2018-01-13T21:08:23.790Z,20.00
2018-01-13T21:10:25.114Z,20.90
2018-01-13T21:12:26.261Z,16.70
2018-01-13T21:14:27.497Z,16.63
2018-01-13T21:16:28.795Z,19.33
2018-01-13T21:18:31.348Z,20.00
2018-01-13T21:20:34.992Z,18.97
2018-01-13T21:22:43.190Z,21.50
2018-01-13T21:24:46.524Z,21.13
2018-01-13T21:26:51.219Z,18.70
2018-01-13T21:28:52.321Z,19.57
2018-01-13T21:30:53.823Z,19.47
2018-01-13T21:32:54.957Z,19.10
2018-01-13T21:34:56.221Z,17.50
2018-01-13T21:36:59.716Z,20.80
2018-01-13T21:39:02.501Z,20.63
2018-01-13T21:41:03.693Z,20.23
2018-01-13T21:43:05.098Z,17.43
2018-01-13T21:45:07.259Z,20.80
2018-01-13T21:49:15.220Z,22.23
2018-01-13T21:51:18.777Z,19.70
2018-01-13T21:53:19.938Z,20.47
2018-01-13T21:55:22.251Z,17.77
2018-01-13T21:57:23.426Z,22.70
2018-01-13T21:59:24.471Z,17.10
2018-01-13T22:01:26.335Z,20.13
2018-01-13T22:03:28.095Z,20.97
2018-01-13T22:07:37.583Z,22.33
2018-01-13T22:09:39.547Z,20.83
2018-01-13T22:11:42.360Z,20.67
2018-01-13T22:13:43.613Z,21.60
2018-01-13T22:15:46.235Z,20.80
2018-01-13T22:17:47.476Z,20.07
2018-01-13T22:19:50.099Z,16.13
2018-01-13T22:21:51.363Z,22.83
2018-01-13T22:23:53.662Z,16.90
2018-01-13T22:25:54.828Z,19.43
2018-01-13T22:27:56.710Z,21.20
2018-01-13T22:30:00.114Z,15.83
2018-01-13T22:32:01.223Z,21.07
2018-01-13T22:34:02.979Z,19.93
2018-01-13T22:36:04.155Z,19.77
2018-01-13T22:38:05.929Z,19.83
2018-01-13T22:40:17.529Z,19.97
2018-01-13T22:42:22.267Z,19.73
2018-01-13T22:44:23.354Z,19.70
2018-01-13T22:46:24.518Z,19.97
2018-01-13T22:48:26.138Z,21.00
2018-01-13T22:50:28.168Z,22.90
2018-01-13T22:52:29.371Z,20.00
2018-01-13T22:54:30.430Z,19.20
2018-01-13T22:56:32.555Z,15.30
2018-01-13T22:58:33.893Z,16.47
2018-01-13T23:00:37.900Z,19.57
2018-01-13T23:02:39.240Z,18.40
2018-01-13T23:04:40.303Z,19.67
2018-01-13T23:06:41.316Z,20.20
2018-01-13T23:08:42.541Z,19.57
2018-01-13T23:10:43.840Z,20.10
2018-01-13T23:12:45.887Z,20.33
2018-01-13T23:14:46.959Z,20.77
2018-01-13T23:16:50.955Z,18.50
2018-01-13T23:18:52.224Z,18.13
2018-01-13T23:20:53.439Z,19.13
2018-01-13T23:22:58.804Z,19.27
2018-01-13T23:25:00.215Z,19.40
2018-01-13T23:27:01.303Z,19.63
2018-01-13T23:29:02.399Z,21.10
2018-01-13T23:31:06.062Z,20.50
2018-01-13T23:35:19.509Z,18.67
2018-01-13T23:37:20.595Z,19.20
2018-01-13T23:39:21.774Z,19.03
2018-01-13T23:41:22.840Z,19.67
2018-01-13T23:43:23.885Z,18.57
2018-01-13T23:45:26.078Z,18.00
2018-01-13T23:47:27.124Z,19.07
2018-01-13T23:49:36.925Z,17.87
2018-01-13T23:51:48.144Z,17.60
2018-01-13T23:53:49.378Z,18.63
2018-01-13T23:55:50.395Z,17.40
2018-01-13T23:57:51.478Z,20.50
2018-01-13T23:59:52.929Z,18.70
